createdAt,value
2024-05-09T00:00:44.724Z,0.63
2024-05-09T00:03:12.652Z,0.80
2024-05-09T00:05:43.756Z,0.93
2024-05-09T00:08:11.900Z,1.10
2024-05-09T00:10:40.722Z,1.10
2024-05-09T00:13:09.335Z,1.10
2024-05-09T00:15:37.311Z,1.05
2024-05-09T00:18:05.965Z,1.48
2024-05-09T00:20:38.819Z,1.30
2024-05-09T00:23:10.566Z,1.77
2024-05-09T00:25:38.305Z,1.30
2024-05-09T00:28:06.229Z,1.00
2024-05-09T00:30:36.167Z,1.65
2024-05-09T00:33:06.549Z,1.17
2024-05-09T00:35:35.489Z,0.98
2024-05-09T00:38:03.292Z,1.10
2024-05-09T00:40:39.850Z,0.82
2024-05-09T00:43:14.512Z,1.55
2024-05-09T00:45:42.972Z,0.97
2024-05-09T00:48:13.428Z,0.90
2024-05-09T00:50:42.994Z,1.02
2024-05-09T00:53:11.783Z,0.80
2024-05-09T00:55:39.579Z,0.80
2024-05-09T00:58:07.791Z,0.90
2024-05-09T01:00:39.421Z,0.95
2024-05-09T01:03:10.899Z,0.70
2024-05-09T01:05:40.610Z,0.80
2024-05-09T01:08:08.740Z,0.88
2024-05-09T01:10:37.094Z,1.00
2024-05-09T01:13:05.033Z,0.88
2024-05-09T01:15:32.978Z,0.80
2024-05-09T01:18:01.728Z,0.70
2024-05-09T01:20:39.533Z,1.83
2024-05-09T01:23:10.549Z,0.80
2024-05-09T01:25:38.107Z,0.75
2024-05-09T01:28:06.093Z,0.88
2024-05-09T01:30:36.106Z,0.88
2024-05-09T01:33:07.310Z,0.68
2024-05-09T01:35:36.705Z,0.80
2024-05-09T01:38:04.461Z,0.77
2024-05-09T01:40:37.599Z,0.70
2024-05-09T01:43:08.294Z,0.80
2024-05-09T01:45:36.585Z,0.80
2024-05-09T01:48:04.740Z,0.73
2024-05-09T01:50:38.526Z,0.80
2024-05-09T01:53:09.959Z,0.80
2024-05-09T01:55:37.615Z,0.80
2024-05-09T01:58:05.082Z,0.73
2024-05-09T02:00:39.164Z,3.27
2024-05-09T02:03:15.609Z,1.15
2024-05-09T02:05:46.164Z,0.90
2024-05-09T02:08:15.597Z,1.00
2024-05-09T02:10:47.607Z,1.13
2024-05-09T02:13:15.630Z,0.90
2024-05-09T02:15:43.211Z,1.10
2024-05-09T02:18:11.185Z,0.90
2024-05-09T02:20:39.469Z,1.00
2024-05-09T02:23:08.613Z,1.00
2024-05-09T02:25:36.294Z,0.83
2024-05-09T02:28:03.870Z,0.80
2024-05-09T02:30:39.315Z,1.10
2024-05-09T02:33:10.973Z,1.17
2024-05-09T02:35:40.473Z,1.30
2024-05-09T02:38:09.083Z,1.63
2024-05-09T02:40:38.784Z,1.40
2024-05-09T02:43:07.900Z,0.98
2024-05-09T02:45:35.812Z,1.42
2024-05-09T02:48:03.535Z,1.02
2024-05-09T02:50:37.802Z,1.23
2024-05-09T02:53:08.410Z,1.10
2024-05-09T02:55:36.619Z,2.60
2024-05-09T02:58:04.117Z,1.17
2024-05-09T03:00:38.424Z,1.13
2024-05-09T03:03:10.100Z,0.97
2024-05-09T03:05:39.847Z,1.10
2024-05-09T03:08:07.708Z,1.20
2024-05-09T03:10:37.271Z,1.10
2024-05-09T03:13:07.429Z,0.90
2024-05-09T03:15:34.794Z,1.10
2024-05-09T03:18:02.510Z,1.00
2024-05-09T03:20:34.252Z,0.90
2024-05-09T03:23:04.548Z,0.95
2024-05-09T03:25:32.273Z,1.27
2024-05-09T03:27:59.809Z,1.10
2024-05-09T03:30:38.703Z,0.93
2024-05-09T03:33:15.552Z,1.02
2024-05-09T03:35:43.946Z,0.70
2024-05-09T03:38:11.493Z,0.90
2024-05-09T03:40:47.258Z,0.90
2024-05-09T03:43:14.903Z,1.05
2024-05-09T03:45:42.854Z,1.00
2024-05-09T03:48:10.674Z,1.10
2024-05-09T03:50:38.465Z,0.90
2024-05-09T03:53:06.304Z,0.70
2024-05-09T03:55:33.730Z,0.80
2024-05-09T03:58:01.146Z,1.10
2024-05-09T04:00:35.775Z,0.82
2024-05-09T04:03:08.946Z,0.90
2024-05-09T04:05:43.795Z,1.00
2024-05-09T04:08:14.711Z,1.00
2024-05-09T04:10:42.361Z,0.93
2024-05-09T04:13:10.339Z,1.00
2024-05-09T04:15:37.754Z,1.20
2024-05-09T04:18:05.607Z,0.97
2024-05-09T04:20:38.422Z,0.70
2024-05-09T04:23:11.396Z,1.20
2024-05-09T04:25:41.392Z,0.80
2024-05-09T04:28:08.760Z,0.90
2024-05-09T04:30:39.424Z,0.80
2024-05-09T04:33:11.183Z,1.00
2024-05-09T04:35:42.617Z,0.80
2024-05-09T04:38:10.684Z,0.90
2024-05-09T04:40:38.456Z,1.30
2024-05-09T04:43:06.904Z,0.93
2024-05-09T04:45:35.267Z,0.93
2024-05-09T04:48:03.367Z,0.90
2024-05-09T04:50:36.835Z,0.80
2024-05-09T04:53:08.382Z,1.00
2024-05-09T04:55:37.362Z,0.90
2024-05-09T04:58:05.665Z,1.08
2024-05-09T05:00:37.216Z,1.02
2024-05-09T05:03:13.056Z,1.00
2024-05-09T05:05:44.038Z,0.98
2024-05-09T05:08:15.685Z,1.10
2024-05-09T05:10:43.940Z,1.00
2024-05-09T05:13:20.822Z,1.00
2024-05-09T05:15:51.052Z,0.98
2024-05-09T05:18:18.929Z,1.20
2024-05-09T05:20:46.740Z,0.93
2024-05-09T05:23:15.923Z,1.33
2024-05-09T05:25:43.822Z,1.17
2024-05-09T05:28:11.371Z,1.00
2024-05-09T05:30:39.062Z,0.90
2024-05-09T05:33:07.110Z,0.93
2024-05-09T05:35:34.985Z,1.38
2024-05-09T05:38:03.351Z,0.90
2024-05-09T05:40:36.397Z,1.15
2024-05-09T05:43:05.983Z,0.80
2024-05-09T05:45:33.543Z,1.00
2024-05-09T05:48:06.601Z,1.00
2024-05-09T05:50:37.195Z,1.00
2024-05-09T05:53:06.797Z,1.00
2024-05-09T05:55:34.490Z,1.42
2024-05-09T05:58:02.411Z,1.00
2024-05-09T06:00:37.427Z,1.10
2024-05-09T06:03:08.018Z,1.00
2024-05-09T06:05:36.564Z,1.10
2024-05-09T06:08:06.690Z,1.38
2024-05-09T06:10:38.444Z,1.20
2024-05-09T06:13:12.204Z,1.08
2024-05-09T06:15:40.621Z,1.00
2024-05-09T06:18:09.128Z,1.20
2024-05-09T06:20:38.380Z,1.10
2024-05-09T06:23:06.639Z,1.00
2024-05-09T06:25:37.188Z,0.90
2024-05-09T06:28:05.100Z,1.00
2024-05-09T06:30:39.339Z,1.10
2024-05-09T06:33:10.810Z,1.20
2024-05-09T06:35:40.525Z,0.97
2024-05-09T06:38:11.650Z,1.33
2024-05-09T06:40:41.311Z,1.02
2024-05-09T06:43:13.414Z,1.00
2024-05-09T06:45:41.148Z,0.88
2024-05-09T06:48:09.122Z,1.20
2024-05-09T06:50:38.544Z,1.17
2024-05-09T06:53:07.911Z,1.13
2024-05-09T06:55:36.093Z,1.15
2024-05-09T06:58:05.522Z,1.20
2024-05-09T07:00:38.888Z,1.07
2024-05-09T07:03:09.949Z,1.17
2024-05-09T07:05:37.852Z,1.23
2024-05-09T07:08:06.247Z,1.00
2024-05-09T07:10:35.870Z,1.27
2024-05-09T07:13:11.205Z,1.20
2024-05-09T07:15:38.954Z,1.27
2024-05-09T07:18:15.579Z,1.10
2024-05-09T07:20:43.667Z,1.30
2024-05-09T07:23:12.061Z,1.30
2024-05-09T07:25:40.148Z,1.20
2024-05-09T07:28:13.383Z,1.33
2024-05-09T07:30:41.133Z,1.20
2024-05-09T07:33:08.686Z,1.10
2024-05-09T07:35:36.454Z,1.20
2024-05-09T07:38:04.034Z,1.40
2024-05-09T07:40:36.099Z,1.05
2024-05-09T07:43:04.978Z,1.30
2024-05-09T07:52:23.394Z,1.10
2024-05-09T07:53:39.475Z,1.20
2024-05-09T07:56:11.522Z,1.15
2024-05-09T07:58:39.514Z,1.10
2024-05-09T08:01:07.076Z,0.90
2024-05-09T08:03:34.836Z,1.00
2024-05-09T08:06:02.369Z,1.23
2024-05-09T08:08:29.763Z,1.08
2024-05-09T08:10:57.198Z,0.95
2024-05-09T08:13:24.657Z,1.27
2024-05-09T08:15:52.628Z,1.17
2024-05-09T08:18:20.430Z,1.40
2024-05-09T08:20:48.477Z,1.10
2024-05-09T08:23:15.918Z,1.08
2024-05-09T08:25:43.404Z,1.20
2024-05-09T08:28:11.532Z,1.17
2024-05-09T08:30:39.255Z,1.05
2024-05-09T08:33:07.632Z,1.20
2024-05-09T08:35:35.795Z,1.40
2024-05-09T08:38:04.185Z,1.20
2024-05-09T08:40:35.738Z,1.50
2024-05-09T08:43:09.843Z,1.38
2024-05-09T08:45:39.571Z,1.20
2024-05-09T08:48:08.369Z,1.10
2024-05-09T08:50:39.216Z,1.40
2024-05-09T08:53:08.264Z,1.23
2024-05-09T08:55:40.234Z,0.93
2024-05-09T08:58:18.261Z,1.30
2024-05-09T09:00:46.472Z,1.40
2024-05-09T09:03:22.817Z,1.13
2024-05-09T09:06:02.889Z,1.00
2024-05-09T09:08:30.251Z,1.00
2024-05-09T09:11:00.552Z,1.05
2024-05-09T09:13:27.978Z,1.02
2024-05-09T09:15:58.623Z,1.15
2024-05-09T09:18:27.047Z,1.00
2024-05-09T09:20:55.104Z,1.15
2024-05-09T09:23:22.801Z,1.10
2024-05-09T09:25:50.549Z,1.23
2024-05-09T09:28:18.080Z,1.10
2024-05-09T09:30:45.580Z,1.00
2024-05-09T09:33:13.181Z,1.23
2024-05-09T09:35:42.620Z,1.00
2024-05-09T09:38:10.731Z,1.10
2024-05-09T09:40:46.722Z,1.02
2024-05-09T09:43:21.448Z,0.97
2024-05-09T09:45:51.148Z,1.20
2024-05-09T09:48:19.971Z,1.10
2024-05-09T09:50:47.726Z,0.93
2024-05-09T09:53:15.088Z,0.98
2024-05-09T09:55:42.448Z,0.90
2024-05-09T09:58:13.375Z,0.90
2024-05-09T10:00:42.274Z,1.13
2024-05-09T10:03:09.987Z,1.20
2024-05-09T10:05:37.947Z,1.30
2024-05-09T10:08:09.241Z,1.10
2024-05-09T10:10:36.736Z,1.10
2024-05-09T10:13:04.926Z,1.40
2024-05-09T10:15:48.547Z,1.50
2024-05-09T10:18:16.437Z,1.30
2024-05-09T10:20:44.762Z,1.00
2024-05-09T10:23:28.658Z,1.10
2024-05-09T10:26:00.421Z,1.08
2024-05-09T10:28:28.858Z,1.13
2024-05-09T10:31:09.889Z,1.40
2024-05-09T10:33:55.860Z,1.60
2024-05-09T10:36:27.287Z,1.20
2024-05-09T10:38:55.154Z,1.40
2024-05-09T10:41:23.207Z,1.00
2024-05-09T10:43:50.916Z,1.40
2024-05-09T10:46:21.499Z,1.20
2024-05-09T10:48:49.927Z,1.20
2024-05-09T10:51:19.294Z,1.58
2024-05-09T10:53:47.886Z,1.30
2024-05-09T10:56:15.360Z,1.30
2024-05-09T10:58:42.822Z,1.43
2024-05-09T11:01:11.506Z,1.50
2024-05-09T11:03:39.712Z,1.20
2024-05-09T11:06:07.678Z,1.10
2024-05-09T11:08:35.219Z,1.00
2024-05-09T11:11:04.748Z,1.00
2024-05-09T11:13:35.686Z,1.38
2024-05-09T11:16:03.352Z,1.50
2024-05-09T11:18:35.199Z,1.20
2024-05-09T11:21:14.225Z,1.20
2024-05-09T11:23:41.852Z,1.17
2024-05-09T11:26:10.892Z,1.35
2024-05-09T11:28:38.487Z,1.20
2024-05-09T11:31:07.571Z,1.35
2024-05-09T11:33:39.270Z,1.20
2024-05-09T11:36:07.467Z,1.33
2024-05-09T11:38:35.973Z,1.40
2024-05-09T11:41:04.440Z,1.10
2024-05-09T11:43:31.957Z,1.60
2024-05-09T11:46:03.550Z,1.38
2024-05-09T11:48:31.808Z,1.40
2024-05-09T11:50:59.551Z,1.20
2024-05-09T11:53:26.949Z,1.35
2024-05-09T11:55:54.315Z,1.63
2024-05-09T11:58:23.066Z,1.40
2024-05-09T12:00:50.603Z,1.50
2024-05-09T12:03:18.204Z,1.30
2024-05-09T12:05:45.925Z,1.40
2024-05-09T12:08:14.275Z,1.50
2024-05-09T12:10:44.880Z,1.23
2024-05-09T12:13:12.449Z,1.50
2024-05-09T12:15:39.944Z,1.33
2024-05-09T12:18:08.217Z,1.63
2024-05-09T12:20:38.847Z,1.23
2024-05-09T12:23:09.334Z,1.55
2024-05-09T12:25:38.403Z,1.17
2024-05-09T12:28:06.423Z,1.40
2024-05-09T12:30:38.330Z,1.40
2024-05-09T12:33:09.276Z,1.33
2024-05-09T12:35:37.014Z,1.48
2024-05-09T12:38:04.647Z,1.50
2024-05-09T12:40:36.687Z,1.30
2024-05-09T12:43:10.225Z,1.50
2024-05-09T12:45:39.090Z,1.52
2024-05-09T12:48:11.910Z,1.40
2024-05-09T12:50:40.186Z,1.20
2024-05-09T12:53:07.659Z,1.20
2024-05-09T12:55:43.920Z,1.40
2024-05-09T12:58:17.298Z,1.13
2024-05-09T13:00:45.492Z,1.17
2024-05-09T13:03:13.482Z,1.30
2024-05-09T13:05:41.680Z,1.30
2024-05-09T13:08:09.418Z,1.45
2024-05-09T13:10:37.026Z,1.10
2024-05-09T13:13:04.838Z,1.40
2024-05-09T13:15:34.554Z,1.20
2024-05-09T13:18:03.522Z,1.17
2024-05-09T13:20:34.224Z,1.40
2024-05-09T13:23:04.275Z,1.45
2024-05-09T13:25:34.314Z,1.50
2024-05-09T13:28:04.878Z,1.50
2024-05-09T13:30:39.474Z,1.38
2024-05-09T13:33:13.650Z,1.42
2024-05-09T13:35:46.679Z,1.50
2024-05-09T13:38:17.539Z,1.85
2024-05-09T13:40:45.444Z,1.43
2024-05-09T13:43:13.640Z,1.50
2024-05-09T13:45:41.176Z,1.45
2024-05-09T13:48:10.007Z,1.60
2024-05-09T13:50:37.741Z,1.65
2024-05-09T13:53:06.988Z,1.80
2024-05-09T13:55:37.420Z,1.27
2024-05-09T13:58:05.163Z,1.40
2024-05-09T14:00:43.797Z,1.40
2024-05-09T14:03:16.618Z,1.65
2024-05-09T14:05:45.493Z,1.80
2024-05-09T14:08:15.266Z,1.52
2024-05-09T14:10:45.143Z,1.55
2024-05-09T14:13:13.527Z,1.90
2024-05-09T14:15:41.234Z,2.35
2024-05-09T14:18:12.431Z,2.20
2024-05-09T14:20:42.089Z,2.30
2024-05-09T14:23:09.781Z,2.60
2024-05-09T14:25:42.018Z,3.22
2024-05-09T14:28:11.322Z,2.92
2024-05-09T14:30:39.639Z,2.57
2024-05-09T14:33:09.897Z,2.65
2024-05-09T14:35:38.669Z,2.90
2024-05-09T14:38:07.251Z,2.72
2024-05-09T14:40:41.383Z,2.70
2024-05-09T14:43:11.877Z,2.80
2024-05-09T14:45:39.763Z,2.70
2024-05-09T14:48:07.883Z,2.55
2024-05-09T14:50:38.667Z,2.95
2024-05-09T14:53:08.430Z,3.20
2024-05-09T14:55:37.500Z,3.13
2024-05-09T14:58:09.242Z,2.90
2024-05-09T15:00:40.320Z,3.20
2024-05-09T15:03:10.648Z,3.17
2024-05-09T15:05:38.102Z,2.95
2024-05-09T15:08:06.317Z,2.93
2024-05-09T15:10:36.106Z,3.00
2024-05-09T15:13:05.340Z,3.28
2024-05-09T15:15:33.469Z,2.90
2024-05-09T15:18:01.030Z,3.08
2024-05-09T15:20:34.577Z,2.70
2024-05-09T15:23:04.938Z,3.50
2024-05-09T15:25:36.051Z,3.20
2024-05-09T15:28:04.925Z,3.05
2024-05-09T15:30:34.034Z,2.83
2024-05-09T15:33:06.547Z,2.80
2024-05-09T15:35:35.582Z,3.03
2024-05-09T15:38:03.676Z,2.90
2024-05-09T15:40:38.398Z,3.40
2024-05-09T15:43:08.860Z,3.20
2024-05-09T15:45:37.568Z,2.90
2024-05-09T15:48:05.774Z,2.97
2024-05-09T15:50:38.759Z,3.40
2024-05-09T15:53:09.952Z,2.92
2024-05-09T15:55:38.262Z,3.33
2024-05-09T15:58:06.533Z,3.50
2024-05-09T16:00:39.159Z,3.20
2024-05-09T16:03:10.505Z,3.13
2024-05-09T16:05:38.570Z,3.38
2024-05-09T16:08:06.721Z,2.70
2024-05-09T16:10:35.134Z,2.73
2024-05-09T16:13:03.772Z,2.58
2024-05-09T16:15:31.951Z,2.75
2024-05-09T16:18:00.264Z,2.10
2024-05-09T16:20:37.235Z,2.10
2024-05-09T16:23:08.314Z,2.00
2024-05-09T16:25:36.267Z,1.90
2024-05-09T16:28:07.566Z,1.83
2024-05-09T16:30:39.122Z,1.73
2024-05-09T16:33:07.116Z,1.90
2024-05-09T16:35:35.274Z,1.67
2024-05-09T16:38:03.015Z,1.60
2024-05-09T16:40:37.443Z,2.00
2024-05-09T16:43:09.109Z,1.63
2024-05-09T16:45:37.697Z,1.60
2024-05-09T16:48:06.568Z,1.97
2024-05-09T16:50:35.688Z,1.98
2024-05-09T16:53:05.005Z,1.70
2024-05-09T16:55:33.392Z,1.80
2024-05-09T16:58:01.150Z,1.80
2024-05-09T17:00:37.822Z,2.00
2024-05-09T17:03:09.991Z,1.75
2024-05-09T17:05:38.319Z,1.60
2024-05-09T17:08:06.479Z,1.65
2024-05-09T17:10:35.266Z,1.60
2024-05-09T17:13:04.666Z,1.77
2024-05-09T17:15:33.771Z,1.60
2024-05-09T17:18:01.731Z,2.10
2024-05-09T17:20:34.075Z,1.80
2024-05-09T17:23:04.591Z,1.90
2024-05-09T17:25:32.689Z,1.70
2024-05-09T17:28:06.506Z,1.48
2024-05-09T17:30:37.027Z,1.70
2024-05-09T17:33:07.083Z,1.88
2024-05-09T17:35:35.705Z,1.60
2024-05-09T17:38:03.103Z,1.60
2024-05-09T17:40:34.260Z,1.60
2024-05-09T17:43:04.993Z,1.75
2024-05-09T17:45:33.262Z,1.50
2024-05-09T17:48:01.319Z,1.40
2024-05-09T17:50:35.439Z,1.57
2024-05-09T17:53:08.168Z,1.50
2024-05-09T17:55:36.146Z,1.60
2024-05-09T17:58:04.824Z,1.60
2024-05-09T18:00:38.526Z,1.75
2024-05-09T18:03:11.033Z,1.20
2024-05-09T18:05:39.497Z,1.73
2024-05-09T18:08:07.388Z,1.48
2024-05-09T18:10:38.576Z,1.50
2024-05-09T18:13:08.484Z,1.60
2024-05-09T18:15:36.409Z,1.43
2024-05-09T18:18:04.615Z,2.05
2024-05-09T18:20:41.427Z,1.80
2024-05-09T18:23:17.474Z,1.48
2024-05-09T18:25:46.405Z,1.70
2024-05-09T18:28:14.565Z,1.80
2024-05-09T18:30:42.110Z,1.80
2024-05-09T18:33:10.643Z,1.80
2024-05-09T18:35:38.696Z,1.65
2024-05-09T18:38:06.242Z,1.33
2024-05-09T18:40:36.675Z,1.80
2024-05-09T18:43:07.492Z,1.35
2024-05-09T18:45:39.569Z,1.52
2024-05-09T18:48:08.534Z,1.40
2024-05-09T18:50:39.462Z,1.40
2024-05-09T18:53:12.795Z,1.50
2024-05-09T18:55:43.686Z,1.52
2024-05-09T18:58:11.240Z,1.83
2024-05-09T19:00:41.390Z,1.55
2024-05-09T19:03:13.530Z,1.80
2024-05-09T19:05:43.967Z,2.13
2024-05-09T19:08:12.753Z,2.25
2024-05-09T19:10:40.611Z,1.80
2024-05-09T19:13:11.964Z,1.75
2024-05-09T19:15:41.947Z,1.85
2024-05-09T19:18:10.369Z,1.90
2024-05-09T19:20:38.495Z,2.30
2024-05-09T19:23:06.865Z,1.95
2024-05-09T19:25:35.500Z,2.08
2024-05-09T19:28:04.000Z,2.00
2024-05-09T19:30:38.647Z,2.00
2024-05-09T19:33:10.237Z,1.80
2024-05-09T19:35:38.856Z,1.80
2024-05-09T19:38:06.376Z,1.83
2024-05-09T19:40:35.089Z,2.13
2024-05-09T19:43:04.858Z,1.90
2024-05-09T19:45:34.439Z,2.08
2024-05-09T19:48:02.735Z,2.00
2024-05-09T19:50:37.883Z,1.80
2024-05-09T19:53:10.745Z,2.17
2024-05-09T19:55:38.695Z,2.10
2024-05-09T19:58:07.340Z,2.20
2024-05-09T20:00:37.597Z,2.25
2024-05-09T20:03:07.504Z,3.08
2024-05-09T20:05:35.651Z,3.58
2024-05-09T20:08:03.514Z,2.60
2024-05-09T20:10:33.318Z,2.60
2024-05-09T20:13:03.217Z,2.50
2024-05-09T20:15:31.675Z,2.10
2024-05-09T20:17:59.215Z,2.25
2024-05-09T20:20:35.555Z,2.07
2024-05-09T20:23:06.856Z,2.05
2024-05-09T20:25:34.228Z,2.08
2024-05-09T20:28:01.703Z,2.10
2024-05-09T20:30:32.790Z,2.13
2024-05-09T20:33:02.458Z,2.10
2024-05-09T20:35:31.958Z,1.70
2024-05-09T20:37:59.650Z,2.10
2024-05-09T20:40:32.655Z,1.63
2024-05-09T20:43:03.916Z,1.70
2024-05-09T20:45:31.454Z,1.70
2024-05-09T20:47:58.994Z,1.70
2024-05-09T20:50:36.316Z,1.92
2024-05-09T20:53:12.159Z,1.67
2024-05-09T20:55:40.600Z,1.80
2024-05-09T20:58:08.732Z,1.83
2024-05-09T21:00:40.490Z,1.90
2024-05-09T21:03:12.449Z,1.77
2024-05-09T21:05:40.907Z,2.15
2024-05-09T21:08:08.751Z,1.83
2024-05-09T21:10:36.990Z,2.00
2024-05-09T21:13:05.874Z,1.88
2024-05-09T21:15:34.311Z,1.70
2024-05-09T21:18:01.950Z,1.67
2024-05-09T21:20:32.759Z,2.40
2024-05-09T21:23:01.455Z,2.03
2024-05-09T21:25:29.466Z,1.98
2024-05-09T21:27:56.962Z,1.92
2024-05-09T21:30:33.154Z,1.88
2024-05-09T21:33:09.847Z,1.83
2024-05-09T21:35:38.971Z,2.10
2024-05-09T21:38:07.261Z,2.30
2024-05-09T21:40:36.496Z,2.20
2024-05-09T21:43:06.324Z,2.35
2024-05-09T21:45:34.419Z,2.67
2024-05-09T21:48:05.454Z,2.37
2024-05-09T21:50:39.638Z,2.10
2024-05-09T21:53:10.592Z,1.70
2024-05-09T21:55:38.201Z,2.20
2024-05-09T21:58:05.747Z,2.35
2024-05-09T22:00:37.640Z,1.80
2024-05-09T22:03:07.271Z,2.08
2024-05-09T22:05:35.662Z,1.77
2024-05-09T22:08:03.581Z,1.80
2024-05-09T22:10:34.753Z,2.00
2024-05-09T22:13:05.412Z,2.17
2024-05-09T22:15:37.958Z,1.90
2024-05-09T22:18:08.073Z,1.90
2024-05-09T22:20:38.819Z,1.90
2024-05-09T22:23:08.288Z,1.90
2024-05-09T22:25:36.631Z,1.70
2024-05-09T22:28:04.557Z,2.15
2024-05-09T22:30:36.963Z,2.00
2024-05-09T22:33:08.141Z,1.90
2024-05-09T22:35:35.949Z,2.10
2024-05-09T22:38:03.626Z,1.80
2024-05-09T22:40:41.672Z,1.70
2024-05-09T22:43:17.410Z,2.53
2024-05-09T22:45:45.218Z,2.10
2024-05-09T22:48:12.939Z,2.10
2024-05-09T22:50:40.770Z,2.00
2024-05-09T22:53:08.154Z,2.28
2024-05-09T22:55:35.502Z,1.95
2024-05-09T22:58:03.047Z,1.95
2024-05-09T23:00:32.377Z,2.00
2024-05-09T23:03:01.342Z,1.67
2024-05-09T23:05:29.378Z,1.80
2024-05-09T23:07:57.074Z,2.10
2024-05-09T23:10:31.649Z,1.92
2024-05-09T23:13:03.658Z,1.85
2024-05-09T23:15:31.560Z,1.73
2024-05-09T23:17:59.322Z,1.70
2024-05-09T23:20:35.881Z,1.80
2024-05-09T23:23:07.083Z,1.98
2024-05-09T23:25:35.083Z,2.08
2024-05-09T23:28:02.729Z,1.70
2024-05-09T23:30:37.382Z,1.65
2024-05-09T23:33:09.039Z,1.92
2024-05-09T23:35:36.676Z,1.70
2024-05-09T23:38:04.431Z,2.20
2024-05-09T23:43:02.590Z,1.88
2024-05-09T23:45:30.062Z,2.05
2024-05-09T23:47:57.550Z,1.80
2024-05-09T23:50:33.228Z,1.50
2024-05-09T23:53:03.974Z,1.60
2024-05-09T23:55:32.327Z,1.60
2024-05-09T23:58:00.447Z,2.10
